TimePDT,TemperatureF,Dew PointF,Humidity,Sea Level PressureIn,VisibilityMPH,Wind Direction,Wind SpeedMPH,Gust SpeedMPH,PrecipitationIn,Events,Conditions,WindDirDegrees,DateUTC
12:53 AM,46.9,23.0,39,29.98,10.0,ENE,3.5,-,N/A,,Clear,60,2012-10-08 07:53:00
1:53 AM,44.1,26.1,49,29.99,10.0,NNE,8.1,-,N/A,,Clear,20,2012-10-08 08:53:00
2:53 AM,46.0,23.0,40,29.99,10.0,NE,5.8,-,N/A,,Clear,40,2012-10-08 09:53:00
3:53 AM,43.0,23.0,45,29.99,10.0,NE,6.9,-,N/A,,Clear,40,2012-10-08 10:53:00
4:53 AM,42.1,23.0,47,29.99,10.0,NE,10.4,-,N/A,,Clear,40,2012-10-08 11:53:00
5:53 AM,41.0,25.0,53,30.00,10.0,NNE,3.5,-,N/A,,Clear,30,2012-10-08 12:53:00
6:53 AM,39.0,23.0,53,30.02,10.0,NE,8.1,-,N/A,,Clear,50,2012-10-08 13:53:00
7:53 AM,42.1,27.0,55,30.04,10.0,Calm,Calm,-,N/A,,Clear,0,2012-10-08 14:53:00
8:53 AM,50.0,28.9,44,30.04,10.0,NNE,3.5,-,N/A,,Clear,20,2012-10-08 15:53:00
9:53 AM,57.0,32.0,39,30.04,10.0,Calm,Calm,-,N/A,,Clear,0,2012-10-08 16:53:00
10:53 AM,62.1,37.9,41,30.03,10.0,Calm,Calm,-,N/A,,Clear,0,2012-10-08 17:53:00
11:53 AM,64.9,37.9,37,30.02,10.0,Calm,Calm,-,N/A,,Clear,0,2012-10-08 18:53:00
12:53 PM,71.1,36.0,28,29.99,10.0,South,5.8,-,N/A,,Clear,180,2012-10-08 19:53:00
1:53 PM,71.1,36.0,28,29.96,10.0,Calm,Calm,-,N/A,,Clear,0,2012-10-08 20:53:00
2:53 PM,73.9,36.0,25,29.93,10.0,WSW,8.1,-,N/A,,Clear,250,2012-10-08 21:53:00
3:53 PM,75.0,32.0,21,29.93,10.0,South,8.1,-,N/A,,Clear,190,2012-10-08 22:53:00
4:53 PM,73.9,30.9,21,29.94,10.0,South,13.8,-,N/A,,Clear,190,2012-10-08 23:53:00
5:53 PM,69.1,37.0,31,29.95,10.0,South,12.7,-,N/A,,Clear,180,2012-10-09 00:53:00
6:53 PM,64.0,37.9,38,29.97,10.0,South,4.6,-,N/A,,Partly Cloudy,170,2012-10-09 01:53:00
7:53 PM,63.0,37.9,40,29.99,10.0,Calm,Calm,-,N/A,,Clear,0,2012-10-09 02:53:00
8:53 PM,61.0,39.9,46,30.00,10.0,Calm,Calm,-,N/A,,Clear,0,2012-10-09 03:53:00
9:53 PM,57.0,37.9,49,30.02,10.0,East,4.6,-,N/A,,Clear,90,2012-10-09 04:53:00
10:53 PM,53.1,36.0,52,30.03,10.0,NE,3.5,-,N/A,,Clear,40,2012-10-09 05:53:00
11:53 PM,48.9,35.1,59,30.04,10.0,NNW,6.9,-,N/A,,Clear,340,2012-10-09 06:53:00